Flugplatz Unterschwaningen (UL)

Hier findest Du alle Informationen zum Flugplatz Unterschwaningen (UL).

Informationen für Piloten zum Flugplatz Unterschwaningen

Hier findest Du alle relevanten Informationen, die Du als Pilot benötigst, um Unterschwaningen anzufliegen.

Flugplatz: Unterschwaningen ICAO-Code: UL Flugplatz
Frequenz Turm: 120.975 Mhz GAFOR Gebiet: 56
Frequenz Ground: 120.975 Mhz Mogas: nein
Platzrunde: N 2000 ft Landegebühr: -
Platzhöhe: Sunrise: 03:32 Uhr UTC
Pisten: 07/25 - 350 m x 25 m, GRAS Sunset: 19:15 Uhr UTC

Flugwetter am Flugplatz Unterschwaningen

Die METAR Information stammen aus EDDN (56.08 km entfernt).

METAR Code:
2019/07/17 16:20
EDDN 171620Z 30009KT CAVOK 25/08 Q1012 NOSIG

Flugschulen am Flugplatz Unterschwaningen

Am Flugplatz Unterschwaningen gibt es leider keine Flugschule.

Benachbarte Flugplätze und Flugschulen

Es gibt 23 weitere Flugplätze in einem Umkreis von 50 km um den Flugplatz Unterschwaningen.

Jetzt anmelden

Passwort vergessen

Umfrage Archiv

Werdet Ihr Euer UL im Zuge der 600 kg MTOW auflasten lassen?

Ja, bei Kosten bis max. 5.000 Euro
54 %
Nein
22 %
Ja, unabhängig von den Kosten
10 %
Ja, bei Kosten bis max. 7.500 Euro
8 %
Ja, bei Kosten bis max. 10.000 Euro
6 %
Stimmen: 50 | Diskussion
Anzeige: Roland Aircraft
Statistik Alle Mitglieder

Aktuell sind 38 Besucher online.

Anzeige: VFR Sprechfunk Simulator


Anzeige: Pocket FMS